Time;durP1;ratioP1;P1;durP2;ratioP2;P2;SDS_P1;SDS_P2;PMS_P1;PMS_P2;Temp;Humidity;BMP_temperature;BMP_pressure;BME280_temperature;BME280_humidity;BME280_pressure;Samples;Min_cycle;Max_cycle;Signal;HPM_P1;HPM_P2
2023/01/15 00:00:04;;;;;;;1.60;1.20;;;8.50;98.20;;;;;;4986170;28;20495;-74
2023/01/15 00:02:31;;;;;;;1.60;1.20;;;8.50;98.20;;;;;;4976570;28;20492;-77
2023/01/15 00:05:01;;;;;;;1.60;1.20;;;8.40;98.20;;;;;;4986780;28;20464;-74
2023/01/15 00:07:28;;;;;;;1.60;1.30;;;8.40;98.20;;;;;;4970956;28;20488;-75
2023/01/15 00:09:55;;;;;;;1.60;1.20;;;8.30;98.20;;;;;;4986644;28;20485;-74
2023/01/15 00:12:21;;;;;;;1.60;1.23;;;8.30;98.20;;;;;;4976264;28;20484;-75
2023/01/15 00:14:48;;;;;;;1.60;1.20;;;8.20;98.20;;;;;;4983214;28;20465;-75
2023/01/15 00:17:16;;;;;;;1.60;1.20;;;8.20;98.20;;;;;;4975483;28;20493;-76
2023/01/15 00:19:43;;;;;;;1.60;1.20;;;8.10;98.20;;;;;;4984549;28;20488;-75
2023/01/15 00:22:10;;;;;;;1.60;1.20;;;8.10;98.20;;;;;;4974260;28;20484;-74
2023/01/15 00:27:39;;;;;;;1.67;1.20;;;8.00;98.20;;;;;;4977524;28;20492;-75
2023/01/15 00:30:08;;;;;;;1.63;1.30;;;8.00;98.20;;;;;;4989012;28;20834;-75
2023/01/15 00:32:36;;;;;;;1.60;1.20;;;7.90;98.20;;;;;;4976610;28;21012;-75
2023/01/15 00:35:03;;;;;;;1.60;1.20;;;7.90;98.20;;;;;;4981536;28;20462;-75
2023/01/15 00:37:29;;;;;;;1.67;1.20;;;7.80;98.20;;;;;;4974369;28;20559;-75
2023/01/15 00:39:56;;;;;;;1.70;1.30;;;7.70;98.20;;;;;;4989018;28;20986;-75
2023/01/15 00:42:23;;;;;;;1.60;1.20;;;7.70;98.20;;;;;;4972427;28;20480;-74
2023/01/15 00:44:49;;;;;;;1.60;1.20;;;7.70;98.20;;;;;;4987858;28;20860;-75
2023/01/15 00:47:16;;;;;;;1.60;1.20;;;7.60;98.20;;;;;;4977357;28;20496;-75
2023/01/15 00:49:45;;;;;;;1.60;1.20;;;7.60;98.20;;;;;;4989913;28;20481;-75
2023/01/15 00:52:12;;;;;;;1.63;1.20;;;7.60;98.20;;;;;;4977697;28;20492;-75
2023/01/15 00:54:39;;;;;;;1.60;1.20;;;7.60;98.20;;;;;;4988647;28;20470;-74
2023/01/15 00:57:06;;;;;;;1.60;1.20;;;7.50;98.20;;;;;;4979807;28;20476;-75
2023/01/15 00:59:32;;;;;;;1.60;1.20;;;7.50;98.20;;;;;;4987520;28;20558;-75
2023/01/15 01:01:59;;;;;;;1.70;1.30;;;7.50;98.20;;;;;;4980523;28;20489;-74
2023/01/15 01:04:26;;;;;;;1.70;1.30;;;7.50;98.20;;;;;;4989225;28;20495;-74
2023/01/15 01:06:54;;;;;;;1.60;1.30;;;7.50;98.20;;;;;;4979503;28;20873;-74
2023/01/15 01:09:21;;;;;;;1.60;1.20;;;7.40;98.20;;;;;;4985315;28;20496;-74
2023/01/15 01:11:49;;;;;;;1.63;1.20;;;7.40;98.20;;;;;;4981415;28;20556;-75
2023/01/15 01:14:16;;;;;;;1.60;1.30;;;7.40;98.20;;;;;;4990430;28;20453;-74
2023/01/15 01:16:42;;;;;;;1.60;1.20;;;7.40;98.20;;;;;;4979851;28;20491;-74
2023/01/15 01:19:11;;;;;;;1.60;1.30;;;7.40;98.20;;;;;;4986246;28;20871;-74
2023/01/15 01:21:43;;;;;;;1.60;1.20;;;7.30;98.20;;;;;;4979431;28;20507;-74
2023/01/15 01:24:13;;;;;;;1.60;1.30;;;7.40;98.20;;;;;;4989695;28;20480;-74
2023/01/15 01:26:40;;;;;;;1.67;1.30;;;7.30;98.20;;;;;;4978573;28;20489;-74
2023/01/15 01:29:07;;;;;;;1.60;1.20;;;7.30;98.20;;;;;;4987102;28;20492;-74
2023/01/15 01:31:34;;;;;;;1.60;1.30;;;7.30;98.20;;;;;;4978964;28;20485;-74
2023/01/15 01:34:00;;;;;;;1.63;1.27;;;7.30;98.20;;;;;;4984867;28;20464;-74
2023/01/15 01:36:29;;;;;;;1.70;1.30;;;7.30;98.20;;;;;;4979392;28;21067;-75
2023/01/15 01:38:56;;;;;;;1.60;1.20;;;7.30;98.20;;;;;;4986845;28;20485;-75
2023/01/15 01:41:25;;;;;;;1.60;1.20;;;7.30;98.20;;;;;;4975823;28;20481;-75
2023/01/15 01:43:55;;;;;;;1.60;1.20;;;7.30;98.20;;;;;;4989042;28;20490;-75
2023/01/15 01:46:22;;;;;;;1.63;1.30;;;7.30;98.20;;;;;;4978035;28;20480;-76
2023/01/15 01:48:53;;;;;;;1.70;1.40;;;7.30;98.20;;;;;;4985096;28;20485;-74
2023/01/15 01:51:22;;;;;;;1.60;1.23;;;7.30;98.20;;;;;;4981295;28;20479;-75
2023/01/15 01:53:50;;;;;;;1.67;1.30;;;7.30;98.20;;;;;;4989048;28;21024;-75
2023/01/15 01:56:18;;;;;;;1.70;1.40;;;7.30;98.20;;;;;;4977873;28;20476;-75
2023/01/15 01:58:50;;;;;;;1.60;1.30;;;7.30;98.20;;;;;;4987798;28;20576;-76
2023/01/15 02:01:17;;;;;;;1.63;1.30;;;7.20;98.20;;;;;;4979163;28;20479;-75
2023/01/15 02:03:45;;;;;;;1.60;1.20;;;7.20;98.20;;;;;;4988875;28;20495;-77
2023/01/15 02:06:13;;;;;;;1.60;1.30;;;7.20;98.20;;;;;;4977303;28;20489;-75
2023/01/15 02:08:40;;;;;;;1.60;1.30;;;7.20;98.20;;;;;;4988468;28;20934;-75
2023/01/15 02:11:12;;;;;;;1.60;1.20;;;7.20;98.20;;;;;;4979515;28;20474;-76
2023/01/15 02:13:41;;;;;;;1.60;1.20;;;7.20;98.20;;;;;;4989036;28;20453;-75
2023/01/15 02:16:15;;;;;;;1.70;1.40;;;7.20;98.20;;;;;;4972859;28;21068;-75
2023/01/15 02:18:50;;;;;;;1.60;1.20;;;7.20;98.20;;;;;;4988277;28;20512;-74
2023/01/15 02:21:24;;;;;;;1.60;1.20;;;7.20;98.20;;;;;;4978780;28;20530;-75
2023/01/15 02:24:05;;;;;;;1.70;1.40;;;7.20;98.20;;;;;;4987614;28;20485;-74
2023/01/15 02:27:02;;;;;;;1.70;1.40;;;7.20;98.20;;;;;;4972324;28;20476;-74
2023/01/15 02:29:34;;;;;;;1.60;1.20;;;7.20;98.20;;;;;;4987468;28;20481;-74
2023/01/15 02:32:04;;;;;;;1.60;1.30;;;7.20;98.20;;;;;;4978281;28;20489;-74
2023/01/15 02:34:35;;;;;;;1.60;1.30;;;7.20;98.20;;;;;;4989025;28;20457;-75
2023/01/15 02:37:06;;;;;;;1.60;1.20;;;7.20;98.20;;;;;;4978957;28;20485;-75
2023/01/15 02:39:35;;;;;;;1.70;1.57;;;7.20;98.20;;;;;;4983018;28;20485;-75
2023/01/15 02:42:07;;;;;;;1.63;1.30;;;7.20;98.20;;;;;;4978124;28;20491;-75
2023/01/15 02:44:38;;;;;;;1.60;1.20;;;7.20;98.20;;;;;;4978902;28;20492;-74
2023/01/15 02:47:06;;;;;;;1.60;1.20;;;7.20;98.20;;;;;;4971632;28;20488;-74
2023/01/15 02:49:35;;;;;;;1.67;1.37;;;7.20;98.20;;;;;;4983644;28;20489;-73
2023/01/15 02:52:07;;;;;;;1.60;1.30;;;7.20;98.20;;;;;;4977997;28;20485;-74
2023/01/15 02:54:39;;;;;;;1.70;1.50;;;7.20;98.20;;;;;;4974276;28;20846;-74
2023/01/15 02:57:10;;;;;;;1.60;1.20;;;7.20;98.20;;;;;;4969490;28;20486;-74
2023/01/15 02:59:40;;;;;;;1.60;1.20;;;7.20;98.20;;;;;;4982085;28;20485;-74
2023/01/15 03:02:11;;;;;;;1.70;1.30;;;7.20;98.20;;;;;;4977699;28;20473;-74
2023/01/15 03:04:43;;;;;;;1.63;1.20;;;7.20;98.20;;;;;;4984226;28;20492;-74
2023/01/15 03:07:18;;;;;;;1.63;1.30;;;7.20;98.20;;;;;;4972767;28;20473;-75
2023/01/15 03:09:46;;;;;;;1.70;1.30;;;7.20;98.20;;;;;;4986967;28;20481;-75
2023/01/15 03:12:18;;;;;;;1.67;1.30;;;7.20;98.20;;;;;;4976175;28;20490;-75
2023/01/15 03:14:52;;;;;;;1.60;1.23;;;7.20;98.20;;;;;;4985573;28;20461;-75
2023/01/15 03:17:22;;;;;;;1.60;1.20;;;7.20;98.20;;;;;;4976960;28;21060;-75
2023/01/15 03:19:56;;;;;;;1.60;1.20;;;7.20;98.20;;;;;;4984451;28;20480;-72
2023/01/15 03:22:28;;;;;;;1.60;1.30;;;7.20;98.20;;;;;;4977036;28;20493;-75
2023/01/15 03:25:00;;;;;;;1.67;1.30;;;7.20;98.20;;;;;;4987774;28;20488;-74
2023/01/15 03:27:28;;;;;;;1.60;1.20;;;7.20;98.20;;;;;;4973492;28;20492;-75
2023/01/15 03:30:00;;;;;;;1.60;1.30;;;7.20;98.20;;;;;;4987213;28;20485;-74
2023/01/15 03:32:30;;;;;;;1.60;1.20;;;7.20;98.20;;;;;;4972241;28;20477;-74
2023/01/15 03:34:57;;;;;;;1.70;1.30;;;7.20;98.20;;;;;;4987845;28;20457;-75
2023/01/15 03:37:27;;;;;;;1.60;1.23;;;7.20;98.20;;;;;;4975031;28;20472;-75
2023/01/15 03:39:54;;;;;;;1.60;1.30;;;7.20;98.20;;;;;;4986038;28;20489;-74
2023/01/15 03:42:35;;;;;;;1.60;1.20;;;7.20;98.20;;;;;;4977042;28;20489;-74
2023/01/15 03:45:10;;;;;;;1.60;1.20;;;7.20;98.20;;;;;;4987544;28;20491;-74
2023/01/15 03:47:49;;;;;;;1.60;1.20;;;7.20;98.20;;;;;;4968796;28;20559;-73
2023/01/15 03:50:23;;;;;;;1.60;1.20;;;7.20;98.20;;;;;;4988418;28;20465;-74
2023/01/15 03:52:57;;;;;;;1.63;1.30;;;7.20;98.20;;;;;;4976869;28;20868;-73
2023/01/15 03:55:31;;;;;;;1.60;1.20;;;7.10;98.20;;;;;;4988255;28;20456;-75
2023/01/15 03:58:02;;;;;;;1.70;1.30;;;7.20;98.20;;;;;;4977132;28;20548;-74
2023/01/15 04:00:35;;;;;;;1.67;1.40;;;7.10;98.20;;;;;;4987202;28;20488;-75
2023/01/15 04:03:04;;;;;;;1.60;1.30;;;7.20;98.20;;;;;;4976373;28;20567;-75
2023/01/15 04:05:32;;;;;;;1.70;1.30;;;7.10;98.20;;;;;;4987911;28;21113;-73
2023/01/15 04:08:01;;;;;;;1.67;1.20;;;7.10;98.20;;;;;;4977172;28;20488;-74
2023/01/15 04:10:27;;;;;;;1.70;1.40;;;7.10;98.20;;;;;;4986964;28;20461;-74
2023/01/15 04:12:54;;;;;;;1.70;1.30;;;7.10;98.20;;;;;;4976201;28;21040;-75
2023/01/15 04:15:22;;;;;;;1.67;1.30;;;7.10;98.20;;;;;;4987840;28;20466;-75
2023/01/15 04:17:49;;;;;;;1.60;1.30;;;7.10;98.20;;;;;;4974344;28;20489;-74
2023/01/15 04:20:16;;;;;;;1.67;1.30;;;7.10;98.20;;;;;;4987001;28;20461;-74
2023/01/15 04:22:43;;;;;;;1.60;1.20;;;7.10;98.20;;;;;;4979058;28;20839;-74
2023/01/15 04:25:11;;;;;;;1.60;1.30;;;7.10;98.20;;;;;;4983556;28;21025;-75
2023/01/15 04:27:37;;;;;;;1.60;1.30;;;7.10;98.20;;;;;;4976558;28;20492;-74
2023/01/15 04:30:05;;;;;;;1.67;1.30;;;7.10;98.20;;;;;;4984790;28;20496;-74
2023/01/15 04:32:33;;;;;;;1.67;1.30;;;7.10;98.20;;;;;;4978955;28;20485;-74
2023/01/15 04:35:00;;;;;;;1.67;1.30;;;7.10;98.20;;;;;;4986755;28;20552;-74
2023/01/15 04:37:26;;;;;;;1.63;1.30;;;7.10;98.20;;;;;;4974863;28;20484;-74
2023/01/15 04:39:53;;;;;;;1.67;1.30;;;7.10;98.20;;;;;;4982675;28;20488;-74
2023/01/15 04:45:05;;;;;;;1.60;1.20;;;7.10;98.20;;;;;;4985994;28;20499;-75
2023/01/15 04:47:33;;;;;;;1.63;1.30;;;7.10;98.20;;;;;;4973097;28;20897;-73
2023/01/15 04:50:00;;;;;;;1.60;1.20;;;7.10;98.20;;;;;;4986478;28;20491;-73
2023/01/15 04:52:26;;;;;;;1.60;1.30;;;7.10;98.20;;;;;;4979619;28;20544;-74
2023/01/15 04:54:54;;;;;;;1.63;1.20;;;7.10;98.20;;;;;;4985424;28;20506;-73
2023/01/15 04:57:21;;;;;;;1.60;1.20;;;7.10;98.20;;;;;;4975194;28;20480;-73
2023/01/15 04:59:48;;;;;;;1.60;1.20;;;7.10;98.20;;;;;;4998381;22;20507;-76
2023/01/15 05:02:15;;;;;;;1.63;1.37;;;7.10;98.20;;;;;;4983692;28;20479;-76
2023/01/15 05:04:43;;;;;;;1.60;1.30;;;7.10;98.20;;;;;;4991936;28;20495;-76
2023/01/15 05:07:11;;;;;;;1.60;1.30;;;7.10;98.20;;;;;;4978304;28;20650;-76
2023/01/15 05:09:38;;;;;;;1.60;1.30;;;7.10;98.20;;;;;;4995927;28;20491;-76
2023/01/15 05:12:05;;;;;;;1.63;1.30;;;7.10;98.20;;;;;;4971292;28;20493;-76
2023/01/15 05:14:32;;;;;;;1.60;1.20;;;7.10;98.20;;;;;;4981154;28;20468;-76
2023/01/15 05:16:59;;;;;;;1.67;1.40;;;7.10;98.20;;;;;;4969376;28;20488;-76
2023/01/15 05:19:26;;;;;;;1.63;1.30;;;7.10;98.20;;;;;;4980394;28;20464;-76
2023/01/15 05:21:54;;;;;;;1.60;1.30;;;7.10;98.20;;;;;;4981535;28;20466;-75
2023/01/15 05:24:21;;;;;;;1.60;1.30;;;7.10;98.20;;;;;;4979819;28;20493;-74
2023/01/15 05:26:48;;;;;;;1.60;1.30;;;7.10;98.20;;;;;;4967707;28;20497;-75
2023/01/15 05:29:15;;;;;;;1.70;1.43;;;7.10;98.20;;;;;;4974103;28;20465;-76
2023/01/15 05:31:43;;;;;;;1.60;1.20;;;7.10;98.20;;;;;;4968369;28;20497;-76
2023/01/15 05:34:12;;;;;;;1.70;1.40;;;7.10;98.20;;;;;;4978535;28;20484;-74
2023/01/15 05:36:39;;;;;;;1.60;1.30;;;7.10;98.20;;;;;;4968666;28;20485;-74
2023/01/15 05:39:07;;;;;;;1.60;1.30;;;7.10;98.20;;;;;;4980574;28;20663;-74
2023/01/15 05:41:48;;;;;;;1.60;1.30;;;7.10;98.20;;;;;;4969396;28;20945;-75
2023/01/15 05:44:17;;;;;;;1.70;1.50;;;7.10;98.20;;;;;;4983866;28;20465;-74
2023/01/15 05:46:45;;;;;;;1.60;1.20;;;7.10;98.20;;;;;;4965039;28;20525;-75
2023/01/15 05:49:15;;;;;;;1.70;1.43;;;7.10;98.20;;;;;;4983483;28;20555;-75
2023/01/15 05:51:43;;;;;;;1.63;1.30;;;7.10;98.20;;;;;;4961638;28;20546;-75
2023/01/15 05:54:14;;;;;;;1.67;1.23;;;7.10;98.20;;;;;;4973414;28;20472;-75
2023/01/15 05:56:41;;;;;;;1.70;1.40;;;7.00;98.20;;;;;;4968539;28;20597;-75
2023/01/15 05:59:09;;;;;;;1.60;1.20;;;7.00;98.20;;;;;;4978102;28;20465;-75
2023/01/15 06:01:36;;;;;;;1.60;1.30;;;7.00;98.20;;;;;;4969351;28;20520;-75
2023/01/15 06:04:06;;;;;;;1.67;1.30;;;7.00;98.20;;;;;;4980213;28;20473;-75
2023/01/15 06:06:34;;;;;;;1.70;1.40;;;7.00;98.20;;;;;;4965253;28;20470;-75
2023/01/15 06:09:01;;;;;;;1.63;1.30;;;7.00;98.20;;;;;;4983146;28;20544;-75
2023/01/15 06:11:29;;;;;;;1.60;1.30;;;7.00;98.20;;;;;;4966161;28;20893;-75
2023/01/15 06:13:56;;;;;;;1.60;1.30;;;7.00;98.20;;;;;;4980695;28;20462;-75
2023/01/15 06:16:23;;;;;;;1.63;1.20;;;7.00;98.20;;;;;;4970976;28;20523;-76
2023/01/15 06:18:50;;;;;;;1.60;1.23;;;7.00;98.20;;;;;;4973056;28;20470;-75
2023/01/15 06:21:18;;;;;;;1.63;1.30;;;7.00;98.20;;;;;;4971955;28;20485;-75
2023/01/15 06:23:46;;;;;;;1.60;1.20;;;7.10;98.20;;;;;;4979100;28;20476;-76
2023/01/15 06:26:15;;;;;;;1.60;1.30;;;7.00;98.20;;;;;;4970819;28;20529;-75
2023/01/15 06:28:44;;;;;;;1.60;1.30;;;7.00;98.20;;;;;;4975019;28;20470;-75
2023/01/15 06:31:15;;;;;;;1.60;1.20;;;7.00;98.20;;;;;;4972293;28;20497;-75
2023/01/15 06:33:43;;;;;;;1.60;1.30;;;7.00;98.20;;;;;;4974579;28;20466;-75
2023/01/15 06:36:11;;;;;;;1.63;1.30;;;7.00;98.20;;;;;;4958691;28;21105;-74
2023/01/15 06:38:39;;;;;;;1.67;1.30;;;7.00;98.20;;;;;;4978770;28;20457;-75
2023/01/15 06:47:19;;;;;;;1.60;1.20;;;7.00;98.20;;;;;;4969166;28;21065;-74
2023/01/15 06:49:30;;;;;;;1.70;1.40;;;7.00;98.20;;;;;;4964982;28;21146;-75
2023/01/15 06:51:57;;;;;;;1.60;1.30;;;6.90;98.20;;;;;;4951165;28;20489;-74
2023/01/15 06:54:23;;;;;;;1.60;1.30;;;6.90;98.20;;;;;;4974135;28;20469;-74
2023/01/15 06:56:50;;;;;;;1.60;1.30;;;6.90;98.20;;;;;;4954221;28;20809;-74
2023/01/15 06:59:18;;;;;;;1.60;1.30;;;6.90;98.20;;;;;;4962316;28;20466;-74
2023/01/15 07:01:45;;;;;;;1.60;1.20;;;6.90;98.20;;;;;;4954391;28;20488;-74
2023/01/15 07:04:12;;;;;;;1.60;1.30;;;6.90;98.20;;;;;;4963695;28;20665;-74
2023/01/15 07:06:39;;;;;;;1.60;1.20;;;6.90;98.20;;;;;;4955080;28;20906;-74
2023/01/15 07:09:06;;;;;;;1.60;1.20;;;6.90;98.20;;;;;;4964132;28;20477;-74
2023/01/15 07:11:33;;;;;;;1.60;1.20;;;6.90;98.20;;;;;;4958323;28;20660;-74
2023/01/15 07:14:05;;;;;;;1.60;1.30;;;6.90;98.20;;;;;;4975917;28;20462;-74
2023/01/15 07:16:34;;;;;;;1.60;1.30;;;6.90;98.20;;;;;;4954940;28;20485;-74
2023/01/15 07:19:02;;;;;;;1.63;1.27;;;6.90;98.20;;;;;;4973663;28;20458;-74
2023/01/15 07:21:29;;;;;;;1.63;1.27;;;6.90;98.20;;;;;;4954726;28;20561;-74
2023/01/15 07:23:59;;;;;;;1.60;1.30;;;6.90;98.20;;;;;;4958837;28;20557;-74
2023/01/15 07:26:26;;;;;;;1.63;1.30;;;6.90;98.20;;;;;;4954939;28;20509;-74
2023/01/15 07:28:54;;;;;;;1.60;1.27;;;6.90;98.20;;;;;;4958975;28;20521;-74
2023/01/15 07:31:21;;;;;;;1.60;1.20;;;6.90;98.20;;;;;;4958945;28;20540;-74
2023/01/15 07:33:49;;;;;;;1.63;1.30;;;6.90;98.20;;;;;;4966910;28;20470;-74
2023/01/15 07:36:16;;;;;;;1.60;1.30;;;6.90;98.20;;;;;;4961814;28;20563;-75
2023/01/15 07:38:44;;;;;;;1.60;1.30;;;6.90;98.20;;;;;;4960637;28;20468;-75
2023/01/15 07:49:47;;;;;;;1.60;1.20;;;6.90;98.20;;;;;;4964089;28;20776;-75
2023/01/15 07:52:16;;;;;;;1.60;1.27;;;6.90;98.20;;;;;;4947511;28;20485;-74
2023/01/15 07:54:43;;;;;;;1.63;1.30;;;6.90;98.20;;;;;;4966839;28;20474;-75
2023/01/15 07:57:11;;;;;;;1.63;1.30;;;6.90;98.20;;;;;;4953717;28;20478;-74
2023/01/15 07:59:38;;;;;;;1.60;1.40;;;6.90;98.20;;;;;;4965893;28;20489;-75
2023/01/15 08:02:05;;;;;;;1.67;1.30;;;6.90;98.20;;;;;;4960767;28;20493;-74
2023/01/15 08:04:33;;;;;;;1.70;1.30;;;6.90;98.20;;;;;;4966586;28;20469;-74
2023/01/15 08:07:00;;;;;;;1.60;1.30;;;6.90;98.20;;;;;;4949898;28;20491;-74
2023/01/15 08:09:27;;;;;;;1.60;1.27;;;6.90;98.20;;;;;;4961718;28;20545;-74
2023/01/15 08:17:22;;;;;;;1.70;1.40;;;6.90;98.20;;;;;;4959696;28;20484;-74
2023/01/15 08:19:51;;;;;;;1.60;1.30;;;6.90;98.20;;;;;;4967892;28;20497;-74
2023/01/15 08:22:21;;;;;;;1.60;1.30;;;6.90;98.20;;;;;;4963592;28;20536;-74
2023/01/15 08:24:48;;;;;;;1.67;1.30;;;6.90;98.20;;;;;;4969170;28;20963;-74
2023/01/15 08:27:15;;;;;;;1.60;1.20;;;6.90;98.20;;;;;;4950871;28;20488;-76
2023/01/15 08:29:43;;;;;;;1.70;1.40;;;6.90;98.20;;;;;;4964707;28;20561;-74
2023/01/15 08:32:10;;;;;;;1.67;1.30;;;6.80;98.20;;;;;;4951339;28;20569;-74
2023/01/15 08:34:36;;;;;;;1.60;1.40;;;6.80;98.20;;;;;;4963620;28;20461;-74
2023/01/15 08:37:05;;;;;;;1.60;1.30;;;6.80;98.20;;;;;;4950977;28;21972;-74
2023/01/15 08:39:31;;;;;;;1.60;1.30;;;6.80;98.20;;;;;;4965513;28;20891;-73
2023/01/15 08:41:58;;;;;;;1.70;1.47;;;6.80;98.20;;;;;;4951022;28;20474;-74
2023/01/15 08:44:25;;;;;;;1.60;1.20;;;6.70;98.20;;;;;;4966838;28;20462;-73
2023/01/15 08:46:53;;;;;;;1.60;1.30;;;6.80;98.20;;;;;;4958613;28;20508;-74
2023/01/15 08:49:21;;;;;;;1.60;1.30;;;6.70;98.20;;;;;;4967759;28;20760;-74
2023/01/15 08:51:50;;;;;;;1.60;1.30;;;6.70;98.20;;;;;;4955776;28;20891;-73
2023/01/15 08:54:20;;;;;;;1.60;1.30;;;6.70;98.20;;;;;;4967627;28;20477;-73
2023/01/15 08:56:48;;;;;;;1.60;1.20;;;6.70;98.20;;;;;;4952820;28;20487;-73
2023/01/15 08:59:15;;;;;;;1.63;1.30;;;6.70;98.20;;;;;;4958567;28;20957;-73
2023/01/15 09:01:43;;;;;;;1.60;1.30;;;6.70;98.20;;;;;;4954024;28;20978;-73
2023/01/15 09:04:13;;;;;;;1.67;1.40;;;6.60;98.20;;;;;;4962154;28;20468;-74
2023/01/15 09:06:39;;;;;;;1.60;1.30;;;6.60;98.20;;;;;;4957196;28;20493;-73
2023/01/15 09:09:06;;;;;;;1.60;1.40;;;6.60;98.20;;;;;;4973181;28;20472;-73
2023/01/15 09:11:35;;;;;;;1.60;1.20;;;6.60;98.20;;;;;;4952683;28;20509;-73
2023/01/15 09:14:01;;;;;;;1.60;1.23;;;6.50;98.20;;;;;;4961323;28;20556;-73
2023/01/15 09:16:30;;;;;;;1.60;1.20;;;6.50;98.20;;;;;;4955399;28;20581;-72
2023/01/15 09:18:58;;;;;;;1.60;1.20;;;6.40;98.20;;;;;;4961620;28;20931;-73
2023/01/15 09:21:25;;;;;;;1.60;1.30;;;6.40;98.20;;;;;;4955582;28;20486;-73
2023/01/15 09:23:53;;;;;;;1.60;1.30;;;6.30;98.20;;;;;;4958939;28;20982;-74
2023/01/15 09:26:27;;;;;;;1.60;1.30;;;6.30;98.20;;;;;;4951654;28;20477;-72
2023/01/15 09:28:56;;;;;;;1.60;1.30;;;6.30;98.20;;;;;;4956802;28;20473;-72
2023/01/15 09:31:23;;;;;;;1.70;1.30;;;6.30;98.20;;;;;;4956946;28;20493;-72
2023/01/15 09:33:50;;;;;;;1.70;1.50;;;6.30;98.20;;;;;;4964728;28;21033;-72
2023/01/15 09:36:18;;;;;;;1.70;1.40;;;6.30;98.20;;;;;;4951730;28;21098;-72
2023/01/15 09:38:46;;;;;;;1.70;1.30;;;6.30;98.20;;;;;;4955419;28;20549;-72
2023/01/15 09:44:06;;;;;;;1.60;1.30;;;6.60;98.20;;;;;;4957031;28;20461;-74
2023/01/15 09:46:39;;;;;;;1.60;1.23;;;6.70;98.20;;;;;;4957440;28;20843;-73
2023/01/15 09:49:14;;;;;;;1.60;1.40;;;6.80;98.20;;;;;;4964576;28;20466;-74
2023/01/15 09:51:50;;;;;;;1.60;1.30;;;6.80;98.20;;;;;;4957197;28;20477;-73
2023/01/15 09:54:22;;;;;;;1.67;1.30;;;6.90;98.20;;;;;;4969200;28;20466;-74
2023/01/15 09:56:50;;;;;;;1.60;1.30;;;7.00;98.20;;;;;;4953432;28;20507;-74
2023/01/15 09:59:30;;;;;;;1.60;1.30;;;7.00;98.20;;;;;;4968505;28;20507;-73
2023/01/15 10:02:04;;;;;;;1.60;1.20;;;7.00;98.20;;;;;;4953009;28;20485;-73
2023/01/15 10:04:37;;;;;;;1.60;1.20;;;7.10;98.20;;;;;;4964233;28;20472;-73
2023/01/15 10:07:11;;;;;;;1.60;1.30;;;7.20;98.20;;;;;;4948084;28;20588;-73
2023/01/15 10:09:40;;;;;;;1.70;1.33;;;7.20;98.20;;;;;;4961469;28;20493;-73
2023/01/15 10:15:07;;;;;;;1.60;1.20;;;7.40;98.20;;;;;;4961658;28;20457;-72
2023/01/15 10:17:40;;;;;;;1.60;1.20;;;7.60;98.20;;;;;;4941917;28;20579;-71
2023/01/15 10:20:14;;;;;;;1.60;1.27;;;7.60;98.20;;;;;;4963306;28;20493;-73
2023/01/15 10:22:57;;;;;;;1.70;1.40;;;7.70;98.20;;;;;;4961560;28;20773;-72
2023/01/15 10:25:28;;;;;;;1.60;1.20;;;7.60;98.20;;;;;;4964184;28;20908;-73
2023/01/15 10:28:02;;;;;;;1.60;1.20;;;7.60;98.20;;;;;;4942695;28;20565;-73
2023/01/15 10:30:40;;;;;;;1.60;1.20;;;7.60;98.20;;;;;;4961393;28;20482;-73
2023/01/15 10:33:27;;;;;;;1.60;1.20;;;7.60;98.20;;;;;;4953861;28;20848;-73
2023/01/15 10:35:58;;;;;;;1.60;1.20;;;7.70;98.20;;;;;;4953551;28;20458;-73
2023/01/15 10:38:33;;;;;;;1.60;1.23;;;7.80;98.20;;;;;;4963993;28;21055;-73
2023/01/15 10:41:14;;;;;;;1.60;1.20;;;7.80;98.20;;;;;;4955850;28;20752;-73
2023/01/15 10:43:49;;;;;;;1.60;1.20;;;7.80;98.20;;;;;;4967069;28;20556;-73
2023/01/15 10:46:25;;;;;;;1.60;1.20;;;7.80;98.20;;;;;;4949482;28;20482;-73
2023/01/15 10:48:56;;;;;;;1.60;1.10;;;7.80;98.20;;;;;;4954300;28;20461;-73
2023/01/15 10:51:28;;;;;;;1.63;1.30;;;7.80;98.20;;;;;;4950158;28;20486;-73
2023/01/15 10:53:58;;;;;;;1.60;1.30;;;7.80;98.20;;;;;;4956579;28;20473;-76
2023/01/15 10:56:33;;;;;;;1.67;1.20;;;7.80;98.20;;;;;;4956534;28;21665;-74
2023/01/15 10:59:09;;;;;;;1.60;1.20;;;7.80;98.20;;;;;;4967404;28;20470;-74
2023/01/15 11:01:38;;;;;;;1.60;1.10;;;7.80;98.20;;;;;;4948548;28;21150;-71
2023/01/15 11:04:06;;;;;;;1.60;1.20;;;7.90;98.20;;;;;;4957242;28;21177;-74
2023/01/15 11:06:34;;;;;;;1.60;1.20;;;7.90;98.20;;;;;;4946666;28;20491;-75
2023/01/15 11:09:01;;;;;;;1.60;1.20;;;7.90;98.20;;;;;;4959423;28;20485;-75
2023/01/15 11:19:35;;;;;;;1.60;1.20;;;7.90;98.20;;;;;;4955684;28;20848;-75
2023/01/15 11:20:22;;;;;;;1.60;1.20;;;8.10;98.20;;;;;;4963914;28;20552;-75
2023/01/15 11:22:52;;;;;;;1.60;1.20;;;8.20;98.20;;;;;;4965214;28;20890;-73
2023/01/15 11:25:31;;;;;;;1.60;1.20;;;8.20;98.20;;;;;;4967159;28;20773;-77
2023/01/15 11:28:00;;;;;;;1.60;1.20;;;8.20;98.20;;;;;;4939557;28;20935;-74
2023/01/15 11:30:31;;;;;;;1.60;1.20;;;8.30;98.20;;;;;;4960503;28;20493;-73
2023/01/15 11:33:03;;;;;;;1.60;1.20;;;8.30;98.20;;;;;;4945002;28;20522;-73
2023/01/15 11:35:31;;;;;;;1.60;1.20;;;8.30;98.20;;;;;;4964091;28;20476;-71
2023/01/15 11:38:06;;;;;;;1.60;1.20;;;8.40;98.20;;;;;;4939930;28;20490;-71
2023/01/15 11:40:33;;;;;;;1.60;1.10;;;8.40;98.20;;;;;;4961486;28;20485;-72
2023/01/15 11:51:33;;;;;;;1.60;1.20;;;8.40;98.20;;;;;;4948756;28;20577;-72
2023/01/15 11:54:03;;;;;;;1.60;1.20;;;8.30;98.20;;;;;;4954243;28;20476;-72
2023/01/15 11:56:31;;;;;;;1.60;1.20;;;8.30;98.20;;;;;;4949055;28;20476;-71
2023/01/15 11:59:02;;;;;;;1.60;1.20;;;8.30;98.20;;;;;;4955538;28;20458;-73
2023/01/15 12:01:31;;;;;;;1.60;1.20;;;8.30;98.20;;;;;;4950405;28;20740;-72
2023/01/15 12:04:01;;;;;;;1.60;1.13;;;8.40;98.20;;;;;;4956133;28;20520;-72
2023/01/15 12:06:29;;;;;;;1.60;1.20;;;8.30;98.20;;;;;;4948288;28;20590;-73
2023/01/15 12:09:05;;;;;;;1.60;1.20;;;8.30;98.20;;;;;;4957541;28;20474;-73
2023/01/15 12:11:55;;;;;;;1.60;1.30;;;8.30;98.20;;;;;;4950617;28;20491;-72
2023/01/15 12:14:46;;;;;;;1.60;1.20;;;8.20;98.20;;;;;;4962336;28;20540;-72
2023/01/15 12:17:24;;;;;;;1.60;1.30;;;8.20;98.20;;;;;;4946323;28;20478;-71
2023/01/15 12:20:01;;;;;;;1.60;1.20;;;8.20;98.20;;;;;;4965113;28;20486;-73
2023/01/15 12:22:43;;;;;;;1.60;1.20;;;8.30;98.20;;;;;;4949471;28;21074;-74
2023/01/15 12:25:38;;;;;;;1.60;1.20;;;8.30;98.20;;;;;;4969206;28;20461;-71
2023/01/15 12:28:11;;;;;;;1.60;1.23;;;8.40;98.20;;;;;;4956816;28;20490;-71
2023/01/15 12:30:44;;;;;;;1.60;1.20;;;8.40;98.20;;;;;;4965522;28;21210;-71
2023/01/15 12:33:20;;;;;;;1.60;1.20;;;8.40;98.20;;;;;;4961426;28;20488;-71
2023/01/15 12:35:55;;;;;;;1.60;1.10;;;8.40;98.20;;;;;;4964914;28;20472;-72
2023/01/15 12:38:34;;;;;;;1.60;1.13;;;8.40;98.20;;;;;;4957865;28;20470;-71
2023/01/15 12:41:09;;;;;;;1.60;1.20;;;8.40;98.20;;;;;;4957866;28;20511;-71
2023/01/15 12:46:24;;;;;;;1.60;1.20;;;8.40;98.20;;;;;;4956098;28;20496;-72
2023/01/15 12:48:55;;;;;;;1.60;1.20;;;8.50;98.20;;;;;;4958831;28;20477;-72
2023/01/15 12:51:29;;;;;;;1.60;1.40;;;8.50;98.20;;;;;;4956268;28;20481;-72
2023/01/15 12:54:03;;;;;;;1.60;1.20;;;8.60;98.20;;;;;;4959307;28;20988;-71
2023/01/15 12:56:37;;;;;;;1.60;1.13;;;8.70;98.20;;;;;;4945094;28;20871;-71
2023/01/15 12:59:11;;;;;;;1.60;1.20;;;8.80;98.20;;;;;;4962750;28;20900;-72
2023/01/15 13:01:48;;;;;;;1.60;1.30;;;8.90;98.20;;;;;;4954046;28;20486;-72
2023/01/15 13:04:22;;;;;;;1.60;1.30;;;8.90;98.20;;;;;;4968659;28;20473;-72
2023/01/15 13:06:59;;;;;;;1.60;1.10;;;8.90;98.20;;;;;;4944346;28;20692;-72
2023/01/15 13:09:36;;;;;;;1.60;1.20;;;8.90;98.20;;;;;;4961774;28;20870;-72
2023/01/15 13:12:10;;;;;;;1.60;1.10;;;8.90;98.20;;;;;;4947205;28;20485;-71
2023/01/15 13:14:38;;;;;;;1.57;1.20;;;8.90;98.20;;;;;;4959288;28;20540;-72
2023/01/15 13:17:15;;;;;;;1.60;1.20;;;9.10;98.20;;;;;;4949771;28;20596;-72
2023/01/15 13:23:18;;;;;;;1.70;1.40;;;9.10;98.20;;;;;;4960610;28;21056;-74
2023/01/15 13:26:01;;;;;;;1.60;1.10;;;9.00;98.20;;;;;;4965110;28;20462;-73
2023/01/15 13:29:08;;;;;;;1.60;1.20;;;9.00;98.20;;;;;;4936035;28;21045;-73
2023/01/15 13:32:09;;;;;;;1.60;1.30;;;9.10;98.20;;;;;;4959947;28;20481;-73
2023/01/15 13:34:43;;;;;;;1.60;1.30;;;9.10;98.20;;;;;;4967739;28;20493;-73
2023/01/15 13:37:21;;;;;;;1.60;1.20;;;9.10;98.20;;;;;;4946967;28;20478;-73
2023/01/15 13:39:54;;;;;;;1.60;1.20;;;9.00;98.20;;;;;;4961409;28;20493;-73
2023/01/15 13:42:34;;;;;;;1.60;1.20;;;9.00;98.20;;;;;;4946485;28;20562;-76
2023/01/15 13:45:06;;;;;;;1.60;1.20;;;8.90;98.20;;;;;;4961213;28;20752;-73
2023/01/15 13:47:38;;;;;;;1.57;1.20;;;8.90;98.20;;;;;;4955413;28;20487;-73
2023/01/15 13:50:14;;;;;;;1.60;1.20;;;8.80;98.20;;;;;;4964650;28;21014;-74
2023/01/15 13:52:42;;;;;;;1.60;1.30;;;8.80;98.20;;;;;;4955191;28;20525;-74
2023/01/15 13:55:19;;;;;;;1.60;1.20;;;8.70;98.20;;;;;;4963456;28;20989;-73
2023/01/15 13:57:47;;;;;;;1.60;1.20;;;8.70;98.20;;;;;;4954737;28;20473;-74
2023/01/15 14:00:33;;;;;;;1.57;1.10;;;8.60;98.20;;;;;;4963414;28;20583;-73
2023/01/15 14:03:02;;;;;;;1.57;1.10;;;8.60;98.20;;;;;;4942455;28;20482;-73
2023/01/15 14:05:33;;;;;;;1.60;1.20;;;8.60;98.20;;;;;;4964173;28;20557;-74